sensor_id;sensor_type;location;lat;lon;timestamp;temperature;humidity
68578;SHT31;61668;45.388;11.784;2023-03-01T00:01:29;3.49;63.79
68578;SHT31;61668;45.388;11.784;2023-03-01T00:03:56;3.47;63.81
68578;SHT31;61668;45.388;11.784;2023-03-01T00:06:23;3.46;63.90
68578;SHT31;61668;45.388;11.784;2023-03-01T00:08:49;3.44;63.90
68578;SHT31;61668;45.388;11.784;2023-03-01T00:11:22;3.43;63.84
68578;SHT31;61668;45.388;11.784;2023-03-01T00:13:55;3.41;63.80
68578;SHT31;61668;45.388;11.784;2023-03-01T00:16:25;3.40;63.84
68578;SHT31;61668;45.388;11.784;2023-03-01T00:18:58;3.38;63.99
68578;SHT31;61668;45.388;11.784;2023-03-01T00:21:24;3.35;64.10
68578;SHT31;61668;45.388;11.784;2023-03-01T00:23:50;3.32;64.19
68578;SHT31;61668;45.388;11.784;2023-03-01T00:26:17;3.29;64.30
68578;SHT31;61668;45.388;11.784;2023-03-01T00:28:45;3.25;64.36
68578;SHT31;61668;45.388;11.784;2023-03-01T00:31:12;3.22;64.47
68578;SHT31;61668;45.388;11.784;2023-03-01T00:33:41;3.18;64.60
68578;SHT31;61668;45.388;11.784;2023-03-01T00:36:08;3.14;64.75
68578;SHT31;61668;45.388;11.784;2023-03-01T00:38:36;3.11;64.85
68578;SHT31;61668;45.388;11.784;2023-03-01T00:41:08;3.09;65.00
68578;SHT31;61668;45.388;11.784;2023-03-01T00:43:36;3.07;65.03
68578;SHT31;61668;45.388;11.784;2023-03-01T00:46:04;3.06;65.01
68578;SHT31;61668;45.388;11.784;2023-03-01T00:48:39;3.06;64.99
68578;SHT31;61668;45.388;11.784;2023-03-01T00:51:09;3.06;65.07
68578;SHT31;61668;45.388;11.784;2023-03-01T00:53:37;3.06;65.11
68578;SHT31;61668;45.388;11.784;2023-03-01T00:56:04;3.06;65.12
68578;SHT31;61668;45.388;11.784;2023-03-01T00:58:31;3.07;65.19
68578;SHT31;61668;45.388;11.784;2023-03-01T01:00:58;3.08;65.17
68578;SHT31;61668;45.388;11.784;2023-03-01T01:03:24;3.09;65.15
68578;SHT31;61668;45.388;11.784;2023-03-01T01:05:53;3.09;65.14
68578;SHT31;61668;45.388;11.784;2023-03-01T01:08:19;3.10;65.26
68578;SHT31;61668;45.388;11.784;2023-03-01T01:10:46;3.10;65.30
68578;SHT31;61668;45.388;11.784;2023-03-01T01:13:12;3.11;65.27
68578;SHT31;61668;45.388;11.784;2023-03-01T01:15:38;3.11;65.30
68578;SHT31;61668;45.388;11.784;2023-03-01T01:18:04;3.13;65.38
68578;SHT31;61668;45.388;11.784;2023-03-01T01:20:31;3.13;65.42
68578;SHT31;61668;45.388;11.784;2023-03-01T01:22:58;3.16;65.46
68578;SHT31;61668;45.388;11.784;2023-03-01T01:25:23;3.17;65.51
68578;SHT31;61668;45.388;11.784;2023-03-01T01:27:51;3.18;65.60
68578;SHT31;61668;45.388;11.784;2023-03-01T01:30:17;3.21;65.51
68578;SHT31;61668;45.388;11.784;2023-03-01T01:32:43;3.24;65.49
68578;SHT31;61668;45.388;11.784;2023-03-01T01:35:08;3.26;65.43
68578;SHT31;61668;45.388;11.784;2023-03-01T01:37:34;3.29;65.45
68578;SHT31;61668;45.388;11.784;2023-03-01T01:40:00;3.31;65.43
68578;SHT31;61668;45.388;11.784;2023-03-01T01:42:29;3.34;65.42
68578;SHT31;61668;45.388;11.784;2023-03-01T01:48:03;3.40;65.38
68578;SHT31;61668;45.388;11.784;2023-03-01T01:50:32;3.43;65.24
68578;SHT31;61668;45.388;11.784;2023-03-01T01:53:10;3.46;65.17
68578;SHT31;61668;45.388;11.784;2023-03-01T01:55:47;3.50;65.05
68578;SHT31;61668;45.388;11.784;2023-03-01T01:58:22;3.53;65.00
68578;SHT31;61668;45.388;11.784;2023-03-01T02:00:52;3.56;64.95
68578;SHT31;61668;45.388;11.784;2023-03-01T02:03:20;3.57;64.87
68578;SHT31;61668;45.388;11.784;2023-03-01T02:05:56;3.60;64.90
68578;SHT31;61668;45.388;11.784;2023-03-01T02:08:30;3.63;64.89
68578;SHT31;61668;45.388;11.784;2023-03-01T02:10:59;3.63;64.80
68578;SHT31;61668;45.388;11.784;2023-03-01T02:13:26;3.66;64.74
68578;SHT31;61668;45.388;11.784;2023-03-01T02:15:52;3.67;64.71
68578;SHT31;61668;45.388;11.784;2023-03-01T02:18:18;3.68;64.70
68578;SHT31;61668;45.388;11.784;2023-03-01T02:23:42;3.72;64.70
68578;SHT31;61668;45.388;11.784;2023-03-01T02:26:26;3.74;64.72
68578;SHT31;61668;45.388;11.784;2023-03-01T02:29:19;3.77;64.70
68578;SHT31;61668;45.388;11.784;2023-03-01T02:31:46;3.78;64.69
68578;SHT31;61668;45.388;11.784;2023-03-01T02:34:23;3.81;64.66
68578;SHT31;61668;45.388;11.784;2023-03-01T02:39:36;3.86;64.69
68578;SHT31;61668;45.388;11.784;2023-03-01T02:42:07;3.88;64.62
68578;SHT31;61668;45.388;11.784;2023-03-01T02:44:38;3.91;64.60
68578;SHT31;61668;45.388;11.784;2023-03-01T02:47:04;3.93;64.62
68578;SHT31;61668;45.388;11.784;2023-03-01T02:49:32;3.96;64.61
68578;SHT31;61668;45.388;11.784;2023-03-01T02:57:46;4.02;64.48
68578;SHT31;61668;45.388;11.784;2023-03-01T03:00:17;4.04;64.45
68578;SHT31;61668;45.388;11.784;2023-03-01T03:02:58;4.06;64.36
68578;SHT31;61668;45.388;11.784;2023-03-01T03:05:25;4.09;64.27
68578;SHT31;61668;45.388;11.784;2023-03-01T03:07:54;4.11;64.18
68578;SHT31;61668;45.388;11.784;2023-03-01T03:10:25;4.14;64.18
68578;SHT31;61668;45.388;11.784;2023-03-01T03:12:57;4.15;64.10
68578;SHT31;61668;45.388;11.784;2023-03-01T03:15:26;4.17;64.10
68578;SHT31;61668;45.388;11.784;2023-03-01T03:17:54;4.17;64.01
68578;SHT31;61668;45.388;11.784;2023-03-01T03:20:22;4.20;63.95
68578;SHT31;61668;45.388;11.784;2023-03-01T03:22:52;4.20;63.85
68578;SHT31;61668;45.388;11.784;2023-03-01T03:25:20;4.22;63.80
68578;SHT31;61668;45.388;11.784;2023-03-01T03:27:48;4.23;63.73
68578;SHT31;61668;45.388;11.784;2023-03-01T03:30:21;4.25;63.60
68578;SHT31;61668;45.388;11.784;2023-03-01T03:32:53;4.26;63.60
68578;SHT31;61668;45.388;11.784;2023-03-01T03:35:20;4.26;63.60
68578;SHT31;61668;45.388;11.784;2023-03-01T03:37:56;4.26;63.63
68578;SHT31;61668;45.388;11.784;2023-03-01T03:40:28;4.24;63.60
68578;SHT31;61668;45.388;11.784;2023-03-01T03:43:06;4.21;63.63
68578;SHT31;61668;45.388;11.784;2023-03-01T03:45:44;4.19;63.64
68578;SHT31;61668;45.388;11.784;2023-03-01T03:48:11;4.17;63.63
68578;SHT31;61668;45.388;11.784;2023-03-01T03:50:37;4.13;63.73
68578;SHT31;61668;45.388;11.784;2023-03-01T03:53:05;4.10;63.74
68578;SHT31;61668;45.388;11.784;2023-03-01T03:55:36;4.08;63.77
68578;SHT31;61668;45.388;11.784;2023-03-01T03:58:04;4.05;63.80
68578;SHT31;61668;45.388;11.784;2023-03-01T04:00:40;4.02;63.82
68578;SHT31;61668;45.388;11.784;2023-03-01T04:03:09;4.00;63.89
68578;SHT31;61668;45.388;11.784;2023-03-01T04:05:36;3.97;63.95
68578;SHT31;61668;45.388;11.784;2023-03-01T04:08:04;3.94;64.08
68578;SHT31;61668;45.388;11.784;2023-03-01T04:10:35;3.91;64.17
68578;SHT31;61668;45.388;11.784;2023-03-01T04:13:08;3.89;64.25
68578;SHT31;61668;45.388;11.784;2023-03-01T04:15:37;3.87;64.31
68578;SHT31;61668;45.388;11.784;2023-03-01T04:18:03;3.83;64.43
68578;SHT31;61668;45.388;11.784;2023-03-01T04:20:31;3.80;64.65
68578;SHT31;61668;45.388;11.784;2023-03-01T04:23:21;3.77;64.76
68578;SHT31;61668;45.388;11.784;2023-03-01T04:25:47;3.75;64.84
68578;SHT31;61668;45.388;11.784;2023-03-01T04:28:18;3.74;64.97
68578;SHT31;61668;45.388;11.784;2023-03-01T04:30:53;3.74;65.11
68578;SHT31;61668;45.388;11.784;2023-03-01T04:33:21;3.75;65.09
68578;SHT31;61668;45.388;11.784;2023-03-01T04:35:47;3.76;65.05
68578;SHT31;61668;45.388;11.784;2023-03-01T04:38:16;3.78;65.00
68578;SHT31;61668;45.388;11.784;2023-03-01T04:40:43;3.80;65.04
68578;SHT31;61668;45.388;11.784;2023-03-01T04:43:09;3.81;65.00
68578;SHT31;61668;45.388;11.784;2023-03-01T04:45:36;3.83;65.00
68578;SHT31;61668;45.388;11.784;2023-03-01T04:48:02;3.84;65.01
68578;SHT31;61668;45.388;11.784;2023-03-01T04:50:29;3.85;64.97
68578;SHT31;61668;45.388;11.784;2023-03-01T04:52:54;3.87;64.91
68578;SHT31;61668;45.388;11.784;2023-03-01T04:55:24;3.88;64.91
68578;SHT31;61668;45.388;11.784;2023-03-01T04:57:51;3.91;64.90
68578;SHT31;61668;45.388;11.784;2023-03-01T05:00:18;3.92;64.99
68578;SHT31;61668;45.388;11.784;2023-03-01T05:02:51;3.95;64.98
68578;SHT31;61668;45.388;11.784;2023-03-01T05:05:21;3.96;64.92
68578;SHT31;61668;45.388;11.784;2023-03-01T05:07:57;3.98;64.91
68578;SHT31;61668;45.388;11.784;2023-03-01T05:10:26;4.01;64.95
68578;SHT31;61668;45.388;11.784;2023-03-01T05:12:56;4.03;64.92
68578;SHT31;61668;45.388;11.784;2023-03-01T05:15:23;4.06;65.03
68578;SHT31;61668;45.388;11.784;2023-03-01T05:17:51;4.06;65.15
68578;SHT31;61668;45.388;11.784;2023-03-01T05:20:19;4.08;65.03
68578;SHT31;61668;45.388;11.784;2023-03-01T05:22:48;4.09;64.98
68578;SHT31;61668;45.388;11.784;2023-03-01T05:25:14;4.11;64.92
68578;SHT31;61668;45.388;11.784;2023-03-01T05:27:40;4.13;64.89
68578;SHT31;61668;45.388;11.784;2023-03-01T05:30:06;4.14;64.87
68578;SHT31;61668;45.388;11.784;2023-03-01T05:32:42;4.16;64.87
68578;SHT31;61668;45.388;11.784;2023-03-01T05:35:13;4.18;64.82
68578;SHT31;61668;45.388;11.784;2023-03-01T05:37:41;4.20;64.82
68578;SHT31;61668;45.388;11.784;2023-03-01T05:40:10;4.21;64.90
68578;SHT31;61668;45.388;11.784;2023-03-01T05:42:45;4.23;64.98
68578;SHT31;61668;45.388;11.784;2023-03-01T05:45:14;4.24;65.08
68578;SHT31;61668;45.388;11.784;2023-03-01T05:47:41;4.25;65.16
68578;SHT31;61668;45.388;11.784;2023-03-01T05:50:19;4.28;65.19
68578;SHT31;61668;45.388;11.784;2023-03-01T05:52:57;4.30;65.20
68578;SHT31;61668;45.388;11.784;2023-03-01T05:55:26;4.33;65.21
68578;SHT31;61668;45.388;11.784;2023-03-01T05:57:53;4.34;65.29
68578;SHT31;61668;45.388;11.784;2023-03-01T06:00:19;4.36;65.32
68578;SHT31;61668;45.388;11.784;2023-03-01T06:02:49;4.37;65.31
68578;SHT31;61668;45.388;11.784;2023-03-01T06:05:17;4.39;65.37
68578;SHT31;61668;45.388;11.784;2023-03-01T06:07:43;4.39;65.32
68578;SHT31;61668;45.388;11.784;2023-03-01T06:10:10;4.41;65.31
68578;SHT31;61668;45.388;11.784;2023-03-01T06:12:37;4.43;65.30
68578;SHT31;61668;45.388;11.784;2023-03-01T06:15:05;4.47;65.18
68578;SHT31;61668;45.388;11.784;2023-03-01T06:17:35;4.50;65.15
68578;SHT31;61668;45.388;11.784;2023-03-01T06:20:07;4.53;65.19
68578;SHT31;61668;45.388;11.784;2023-03-01T06:22:39;4.57;65.11
68578;SHT31;61668;45.388;11.784;2023-03-01T06:25:06;4.61;65.10
68578;SHT31;61668;45.388;11.784;2023-03-01T06:27:32;4.63;65.13
68578;SHT31;61668;45.388;11.784;2023-03-01T06:29:58;4.68;65.19
68578;SHT31;61668;45.388;11.784;2023-03-01T06:32:24;4.70;65.16
68578;SHT31;61668;45.388;11.784;2023-03-01T06:34:49;4.74;65.20
68578;SHT31;61668;45.388;11.784;2023-03-01T06:37:15;4.78;65.11
68578;SHT31;61668;45.388;11.784;2023-03-01T06:39:41;4.81;64.99
68578;SHT31;61668;45.388;11.784;2023-03-01T06:42:09;4.85;65.01
68578;SHT31;61668;45.388;11.784;2023-03-01T06:44:35;4.90;64.92
68578;SHT31;61668;45.388;11.784;2023-03-01T06:47:02;4.93;64.80
68578;SHT31;61668;45.388;11.784;2023-03-01T06:49:28;4.98;64.69
68578;SHT31;61668;45.388;11.784;2023-03-01T06:51:54;5.03;64.55
68578;SHT31;61668;45.388;11.784;2023-03-01T06:54:19;5.07;64.42
68578;SHT31;61668;45.388;11.784;2023-03-01T06:56:47;5.12;64.31
68578;SHT31;61668;45.388;11.784;2023-03-01T06:59:13;5.18;64.26
68578;SHT31;61668;45.388;11.784;2023-03-01T07:01:40;5.22;64.20
68578;SHT31;61668;45.388;11.784;2023-03-01T07:04:06;5.28;64.04
68578;SHT31;61668;45.388;11.784;2023-03-01T07:06:31;5.35;63.97
68578;SHT31;61668;45.388;11.784;2023-03-01T07:08:57;5.43;63.81
68578;SHT31;61668;45.388;11.784;2023-03-01T07:13:54;5.64;63.33
68578;SHT31;61668;45.388;11.784;2023-03-01T07:16:21;5.77;63.13
68578;SHT31;61668;45.388;11.784;2023-03-01T07:18:47;5.89;62.97
68578;SHT31;61668;45.388;11.784;2023-03-01T07:21:13;6.01;62.66
68578;SHT31;61668;45.388;11.784;2023-03-01T07:23:39;6.12;62.24
68578;SHT31;61668;45.388;11.784;2023-03-01T07:26:06;6.24;62.11
68578;SHT31;61668;45.388;11.784;2023-03-01T07:28:32;6.37;62.04
68578;SHT31;61668;45.388;11.784;2023-03-01T07:31:03;6.47;61.88
68578;SHT31;61668;45.388;11.784;2023-03-01T07:33:30;6.53;61.52
68578;SHT31;61668;45.388;11.784;2023-03-01T07:35:57;6.61;61.70
68578;SHT31;61668;45.388;11.784;2023-03-01T07:38:25;6.68;61.40
68578;SHT31;61668;45.388;11.784;2023-03-01T07:40:52;6.78;61.14
68578;SHT31;61668;45.388;11.784;2023-03-01T07:43:23;6.86;60.70
68578;SHT31;61668;45.388;11.784;2023-03-01T07:45:49;6.93;60.13
68578;SHT31;61668;45.388;11.784;2023-03-01T07:48:15;7.01;59.72
68578;SHT31;61668;45.388;11.784;2023-03-01T07:50:41;7.06;59.59
68578;SHT31;61668;45.388;11.784;2023-03-01T07:53:08;7.13;59.43
68578;SHT31;61668;45.388;11.784;2023-03-01T07:55:35;7.18;59.18
68578;SHT31;61668;45.388;11.784;2023-03-01T07:58:01;7.21;58.74
68578;SHT31;61668;45.388;11.784;2023-03-01T08:00:27;7.23;58.69
68578;SHT31;61668;45.388;11.784;2023-03-01T08:02:53;7.27;58.79
68578;SHT31;61668;45.388;11.784;2023-03-01T08:05:19;7.30;58.84
68578;SHT31;61668;45.388;11.784;2023-03-01T08:07:47;7.34;58.68
68578;SHT31;61668;45.388;11.784;2023-03-01T08:10:13;7.36;58.52
68578;SHT31;61668;45.388;11.784;2023-03-01T08:12:39;7.41;58.54
68578;SHT31;61668;45.388;11.784;2023-03-01T08:15:05;7.46;58.49
68578;SHT31;61668;45.388;11.784;2023-03-01T08:17:31;7.50;58.08
68578;SHT31;61668;45.388;11.784;2023-03-01T08:19:57;7.54;58.07
68578;SHT31;61668;45.388;11.784;2023-03-01T08:22:22;7.56;57.71
68578;SHT31;61668;45.388;11.784;2023-03-01T08:24:48;7.59;57.59
68578;SHT31;61668;45.388;11.784;2023-03-01T08:27:15;7.62;57.49
68578;SHT31;61668;45.388;11.784;2023-03-01T08:29:41;7.65;57.42
68578;SHT31;61668;45.388;11.784;2023-03-01T08:32:07;7.71;57.27
68578;SHT31;61668;45.388;11.784;2023-03-01T08:34:33;7.79;57.51
68578;SHT31;61668;45.388;11.784;2023-03-01T08:37:00;7.87;57.23
68578;SHT31;61668;45.388;11.784;2023-03-01T08:39:27;7.97;57.23
68578;SHT31;61668;45.388;11.784;2023-03-01T08:41:52;8.09;57.37
68578;SHT31;61668;45.388;11.784;2023-03-01T08:44:19;8.19;56.82
68578;SHT31;61668;45.388;11.784;2023-03-01T08:46:46;8.29;56.69
68578;SHT31;61668;45.388;11.784;2023-03-01T08:49:13;8.38;56.63
68578;SHT31;61668;45.388;11.784;2023-03-01T08:51:42;8.49;56.44
68578;SHT31;61668;45.388;11.784;2023-03-01T08:54:13;8.60;56.27
68578;SHT31;61668;45.388;11.784;2023-03-01T08:56:43;8.70;55.75
68578;SHT31;61668;45.388;11.784;2023-03-01T08:59:13;8.91;55.81
68578;SHT31;61668;45.388;11.784;2023-03-01T09:01:41;9.19;55.18
68578;SHT31;61668;45.388;11.784;2023-03-01T09:04:14;9.61;54.35
68578;SHT31;61668;45.388;11.784;2023-03-01T09:06:41;10.29;53.15
68578;SHT31;61668;45.388;11.784;2023-03-01T09:09:10;10.81;52.40
68578;SHT31;61668;45.388;11.784;2023-03-01T09:11:43;11.33;51.29
68578;SHT31;61668;45.388;11.784;2023-03-01T09:14:11;11.84;50.74
68578;SHT31;61668;45.388;11.784;2023-03-01T09:16:38;12.23;48.85
68578;SHT31;61668;45.388;11.784;2023-03-01T09:19:04;12.36;46.95
68578;SHT31;61668;45.388;11.784;2023-03-01T09:21:31;12.76;46.40
68578;SHT31;61668;45.388;11.784;2023-03-01T09:23:57;13.36;46.63
68578;SHT31;61668;45.388;11.784;2023-03-01T09:26:23;13.66;46.58
68578;SHT31;61668;45.388;11.784;2023-03-01T09:28:51;13.44;46.03
68578;SHT31;61668;45.388;11.784;2023-03-01T09:31:20;13.15;45.53
68578;SHT31;61668;45.388;11.784;2023-03-01T09:33:47;12.93;45.27
68578;SHT31;61668;45.388;11.784;2023-03-01T09:36:18;12.81;45.76
68578;SHT31;61668;45.388;11.784;2023-03-01T09:38:46;12.84;45.75
68578;SHT31;61668;45.388;11.784;2023-03-01T09:43:52;13.14;44.47
68578;SHT31;61668;45.388;11.784;2023-03-01T09:46:44;13.10;45.98
68578;SHT31;61668;45.388;11.784;2023-03-01T09:49:15;13.01;45.25
68578;SHT31;61668;45.388;11.784;2023-03-01T09:51:48;12.95;45.44
68578;SHT31;61668;45.388;11.784;2023-03-01T09:54:21;12.87;44.68
68578;SHT31;61668;45.388;11.784;2023-03-01T09:56:53;12.72;43.82
68578;SHT31;61668;45.388;11.784;2023-03-01T09:59:30;12.63;43.74
68578;SHT31;61668;45.388;11.784;2023-03-01T10:02:45;12.68;43.52
68578;SHT31;61668;45.388;11.784;2023-03-01T10:05:33;12.93;42.98
68578;SHT31;61668;45.388;11.784;2023-03-01T10:08:27;13.13;43.07
68578;SHT31;61668;45.388;11.784;2023-03-01T10:11:01;13.19;42.16
68578;SHT31;61668;45.388;11.784;2023-03-01T10:13:33;13.21;41.86
68578;SHT31;61668;45.388;11.784;2023-03-01T10:19:24;13.18;41.93
68578;SHT31;61668;45.388;11.784;2023-03-01T10:22:03;13.22;42.05
68578;SHT31;61668;45.388;11.784;2023-03-01T10:24:56;13.27;42.04
68578;SHT31;61668;45.388;11.784;2023-03-01T10:27:24;13.26;41.93
68578;SHT31;61668;45.388;11.784;2023-03-01T10:30:19;13.21;41.39
68578;SHT31;61668;45.388;11.784;2023-03-01T10:32:54;13.14;41.80
68578;SHT31;61668;45.388;11.784;2023-03-01T10:35:22;13.06;41.68
68578;SHT31;61668;45.388;11.784;2023-03-01T10:38:00;12.97;42.02
68578;SHT31;61668;45.388;11.784;2023-03-01T10:40:33;12.88;42.21
68578;SHT31;61668;45.388;11.784;2023-03-01T10:43:02;12.81;42.78
68578;SHT31;61668;45.388;11.784;2023-03-01T10:45:32;12.69;42.56
68578;SHT31;61668;45.388;11.784;2023-03-01T10:51:04;12.47;43.15
68578;SHT31;61668;45.388;11.784;2023-03-01T10:53:36;12.40;43.81
68578;SHT31;61668;45.388;11.784;2023-03-01T10:56:10;12.35;44.35
68578;SHT31;61668;45.388;11.784;2023-03-01T10:58:39;12.31;44.23
68578;SHT31;61668;45.388;11.784;2023-03-01T11:04:02;12.15;44.12
68578;SHT31;61668;45.388;11.784;2023-03-01T11:06:31;12.04;43.89
68578;SHT31;61668;45.388;11.784;2023-03-01T11:09:16;11.94;44.21
68578;SHT31;61668;45.388;11.784;2023-03-01T11:11:46;11.85;44.52
68578;SHT31;61668;45.388;11.784;2023-03-01T11:14:26;11.74;44.04
68578;SHT31;61668;45.388;11.784;2023-03-01T11:17:04;11.62;44.37
68578;SHT31;61668;45.388;11.784;2023-03-01T11:19:42;11.53;44.96
68578;SHT31;61668;45.388;11.784;2023-03-01T11:24:51;11.44;45.31
68578;SHT31;61668;45.388;11.784;2023-03-01T11:29:57;11.28;45.20
68578;SHT31;61668;45.388;11.784;2023-03-01T11:32:45;11.20;45.28
68578;SHT31;61668;45.388;11.784;2023-03-01T11:36:13;11.12;45.78
68578;SHT31;61668;45.388;11.784;2023-03-01T11:38:41;11.05;45.86
68578;SHT31;61668;45.388;11.784;2023-03-01T11:41:15;10.99;46.05
68578;SHT31;61668;45.388;11.784;2023-03-01T11:43:57;10.92;46.24
68578;SHT31;61668;45.388;11.784;2023-03-01T11:57:31;10.57;46.99
68578;SHT31;61668;45.388;11.784;2023-03-01T12:18:25;10.31;48.71
68578;SHT31;61668;45.388;11.784;2023-03-01T12:35:54;10.23;48.96
68578;SHT31;61668;45.388;11.784;2023-03-01T12:54:44;10.05;49.66
68578;SHT31;61668;45.388;11.784;2023-03-01T12:57:34;10.02;50.45
68578;SHT31;61668;45.388;11.784;2023-03-01T13:00:26;9.98;51.90
68578;SHT31;61668;45.388;11.784;2023-03-01T13:06:42;9.88;53.43
68578;SHT31;61668;45.388;11.784;2023-03-01T13:09:34;9.85;54.00
68578;SHT31;61668;45.388;11.784;2023-03-01T13:14:58;9.81;53.52
68578;SHT31;61668;45.388;11.784;2023-03-01T13:17:31;9.79;53.16
68578;SHT31;61668;45.388;11.784;2023-03-01T13:20:11;9.80;53.07
68578;SHT31;61668;45.388;11.784;2023-03-01T13:22:42;9.80;52.85
68578;SHT31;61668;45.388;11.784;2023-03-01T13:27:44;9.81;52.44
68578;SHT31;61668;45.388;11.784;2023-03-01T13:30:44;9.82;52.40
68578;SHT31;61668;45.388;11.784;2023-03-01T13:35:52;9.83;51.75
68578;SHT31;61668;45.388;11.784;2023-03-01T13:46:44;9.77;52.45
68578;SHT31;61668;45.388;11.784;2023-03-01T13:49:20;9.73;53.00
68578;SHT31;61668;45.388;11.784;2023-03-01T13:51:52;9.69;53.97
68578;SHT31;61668;45.388;11.784;2023-03-01T13:54:29;9.65;54.31
68578;SHT31;61668;45.388;11.784;2023-03-01T13:56:58;9.60;55.01
68578;SHT31;61668;45.388;11.784;2023-03-01T13:59:26;9.56;55.72
68578;SHT31;61668;45.388;11.784;2023-03-01T14:01:56;9.52;56.30
68578;SHT31;61668;45.388;11.784;2023-03-01T14:04:29;9.46;57.31
68578;SHT31;61668;45.388;11.784;2023-03-01T14:07:17;9.36;57.93
68578;SHT31;61668;45.388;11.784;2023-03-01T14:09:51;9.22;59.13
68578;SHT31;61668;45.388;11.784;2023-03-01T14:17:38;8.97;60.71
68578;SHT31;61668;45.388;11.784;2023-03-01T14:20:30;8.88;61.26
68578;SHT31;61668;45.388;11.784;2023-03-01T14:23:08;8.82;61.39
68578;SHT31;61668;45.388;11.784;2023-03-01T14:25:37;8.76;61.81
68578;SHT31;61668;45.388;11.784;2023-03-01T14:30:42;8.66;63.13
68578;SHT31;61668;45.388;11.784;2023-03-01T14:35:59;8.53;63.69
68578;SHT31;61668;45.388;11.784;2023-03-01T14:38:29;8.48;64.45
68578;SHT31;61668;45.388;11.784;2023-03-01T14:41:00;8.45;64.22
68578;SHT31;61668;45.388;11.784;2023-03-01T14:43:35;8.42;64.15
68578;SHT31;61668;45.388;11.784;2023-03-01T14:46:05;8.41;64.18
68578;SHT31;61668;45.388;11.784;2023-03-01T14:48:30;8.40;64.33
68578;SHT31;61668;45.388;11.784;2023-03-01T14:50:57;8.39;64.51
68578;SHT31;61668;45.388;11.784;2023-03-01T14:53:24;8.38;64.79
68578;SHT31;61668;45.388;11.784;2023-03-01T14:55:54;8.36;65.41
68578;SHT31;61668;45.388;11.784;2023-03-01T14:58:27;8.34;65.87
68578;SHT31;61668;45.388;11.784;2023-03-01T15:00:54;8.34;65.75
68578;SHT31;61668;45.388;11.784;2023-03-01T15:03:33;8.32;66.00
68578;SHT31;61668;45.388;11.784;2023-03-01T15:06:09;8.30;66.37
68578;SHT31;61668;45.388;11.784;2023-03-01T15:08:37;8.27;66.98
68578;SHT31;61668;45.388;11.784;2023-03-01T15:13:39;8.22;67.25
68578;SHT31;61668;45.388;11.784;2023-03-01T15:16:12;8.20;67.43
68578;SHT31;61668;45.388;11.784;2023-03-01T15:18:49;8.20;67.17
68578;SHT31;61668;45.388;11.784;2023-03-01T15:21:40;8.21;67.29
68578;SHT31;61668;45.388;11.784;2023-03-01T15:27:13;8.20;67.86
68578;SHT31;61668;45.388;11.784;2023-03-01T15:29:40;8.20;68.17
68578;SHT31;61668;45.388;11.784;2023-03-01T15:32:32;8.17;68.48
68578;SHT31;61668;45.388;11.784;2023-03-01T15:35:32;8.14;68.31
68578;SHT31;61668;45.388;11.784;2023-03-01T15:41:01;8.09;68.79
68578;SHT31;61668;45.388;11.784;2023-03-01T15:43:37;8.08;68.93
68578;SHT31;61668;45.388;11.784;2023-03-01T15:49:17;8.04;68.98
68578;SHT31;61668;45.388;11.784;2023-03-01T15:52:08;8.02;69.18
68578;SHT31;61668;45.388;11.784;2023-03-01T15:54:44;8.01;69.19
68578;SHT31;61668;45.388;11.784;2023-03-01T15:57:14;7.98;69.67
68578;SHT31;61668;45.388;11.784;2023-03-01T15:59:40;7.95;70.05
68578;SHT31;61668;45.388;11.784;2023-03-01T16:02:10;7.94;70.52
68578;SHT31;61668;45.388;11.784;2023-03-01T16:04:37;7.90;71.03
68578;SHT31;61668;45.388;11.784;2023-03-01T16:07:04;7.88;71.23
68578;SHT31;61668;45.388;11.784;2023-03-01T16:09:30;7.85;71.44
68578;SHT31;61668;45.388;11.784;2023-03-01T16:11:55;7.82;71.77
68578;SHT31;61668;45.388;11.784;2023-03-01T16:14:21;7.77;72.01
68578;SHT31;61668;45.388;11.784;2023-03-01T16:16:47;7.72;72.72
68578;SHT31;61668;45.388;11.784;2023-03-01T16:19:13;7.68;72.81
68578;SHT31;61668;45.388;11.784;2023-03-01T16:21:40;7.62;73.21
68578;SHT31;61668;45.388;11.784;2023-03-01T16:24:07;7.57;73.22
68578;SHT31;61668;45.388;11.784;2023-03-01T16:26:34;7.53;73.49
68578;SHT31;61668;45.388;11.784;2023-03-01T16:29:02;7.48;73.76
68578;SHT31;61668;45.388;11.784;2023-03-01T16:31:28;7.43;74.40
68578;SHT31;61668;45.388;11.784;2023-03-01T16:33:54;7.40;74.79
68578;SHT31;61668;45.388;11.784;2023-03-01T16:36:22;7.34;75.31
68578;SHT31;61668;45.388;11.784;2023-03-01T16:38:51;7.29;76.02
68578;SHT31;61668;45.388;11.784;2023-03-01T16:41:18;7.23;76.30
68578;SHT31;61668;45.388;11.784;2023-03-01T16:43:46;7.18;76.64
68578;SHT31;61668;45.388;11.784;2023-03-01T16:46:14;7.13;76.68
68578;SHT31;61668;45.388;11.784;2023-03-01T16:48:46;7.11;76.81
68578;SHT31;61668;45.388;11.784;2023-03-01T16:51:13;7.05;76.97
68578;SHT31;61668;45.388;11.784;2023-03-01T16:53:40;7.02;76.87
68578;SHT31;61668;45.388;11.784;2023-03-01T16:56:07;6.98;77.16
68578;SHT31;61668;45.388;11.784;2023-03-01T16:58:35;6.96;77.33
68578;SHT31;61668;45.388;11.784;2023-03-01T17:01:04;6.93;77.19
68578;SHT31;61668;45.388;11.784;2023-03-01T17:03:44;6.91;77.25
68578;SHT31;61668;45.388;11.784;2023-03-01T17:06:15;6.89;77.53
68578;SHT31;61668;45.388;11.784;2023-03-01T17:08:45;6.86;77.66
68578;SHT31;61668;45.388;11.784;2023-03-01T17:11:15;6.86;77.64
68578;SHT31;61668;45.388;11.784;2023-03-01T17:13:42;6.86;77.45
68578;SHT31;61668;45.388;11.784;2023-03-01T17:16:09;6.84;77.43
68578;SHT31;61668;45.388;11.784;2023-03-01T17:18:41;6.83;77.55
68578;SHT31;61668;45.388;11.784;2023-03-01T17:21:08;6.82;77.48
68578;SHT31;61668;45.388;11.784;2023-03-01T17:23:35;6.82;77.51
68578;SHT31;61668;45.388;11.784;2023-03-01T17:26:03;6.82;77.37
68578;SHT31;61668;45.388;11.784;2023-03-01T17:28:30;6.81;77.50
68578;SHT31;61668;45.388;11.784;2023-03-01T17:30:59;6.80;77.43
68578;SHT31;61668;45.388;11.784;2023-03-01T17:33:26;6.79;77.77
68578;SHT31;61668;45.388;11.784;2023-03-01T17:35:55;6.78;77.61
68578;SHT31;61668;45.388;11.784;2023-03-01T17:38:21;6.77;77.76
68578;SHT31;61668;45.388;11.784;2023-03-01T17:40:47;6.76;77.98
68578;SHT31;61668;45.388;11.784;2023-03-01T17:43:13;6.77;77.89
68578;SHT31;61668;45.388;11.784;2023-03-01T17:45:42;6.77;77.90
68578;SHT31;61668;45.388;11.784;2023-03-01T17:48:12;6.77;78.04
68578;SHT31;61668;45.388;11.784;2023-03-01T17:50:40;6.78;78.20
68578;SHT31;61668;45.388;11.784;2023-03-01T17:53:06;6.79;78.20
68578;SHT31;61668;45.388;11.784;2023-03-01T17:55:33;6.77;78.39
68578;SHT31;61668;45.388;11.784;2023-03-01T17:58:01;6.77;78.35
68578;SHT31;61668;45.388;11.784;2023-03-01T18:00:27;6.78;78.33
68578;SHT31;61668;45.388;11.784;2023-03-01T18:02:54;6.78;78.45
68578;SHT31;61668;45.388;11.784;2023-03-01T18:05:19;6.77;78.36